Time;durP1;ratioP1;P1;durP2;ratioP2;P2;SDS_P1;SDS_P2;PMS_P1;PMS_P2;Temp;Humidity;BMP_temperature;BMP_pressure;BME280_temperature;BME280_humidity;BME280_pressure;Samples;Min_cycle;Max_cycle;Signal;HPM_P1;HPM_P2
2023/03/26 00:00:24;;;;;;;36.25;7.80;;;;;;;7.49;100.00;100649.69;4850709;29;20455;-85
2023/03/26 00:02:49;;;;;;;49.13;8.85;;;;;;;7.45;100.00;100654.28;4858335;29;20123;-85
2023/03/26 00:05:23;;;;;;;40.47;8.45;;;;;;;7.43;100.00;100645.69;4866351;29;20116;-86
2023/03/26 00:08:01;;;;;;;40.13;8.40;;;;;;;7.40;100.00;100645.88;4882645;29;20112;-86
2023/03/26 00:10:40;;;;;;;45.25;9.50;;;;;;;7.36;100.00;100649.63;4886519;29;20494;-86
2023/03/26 00:13:14;;;;;;;42.88;8.25;;;;;;;7.31;100.00;100646.47;4888070;29;20058;-85
2023/03/26 00:15:43;;;;;;;44.30;8.23;;;;;;;7.25;100.00;100641.66;4896000;29;20055;-86
2023/03/26 00:18:11;;;;;;;40.95;8.65;;;;;;;7.24;100.00;100639.97;4897711;29;20032;-86
2023/03/26 00:20:37;;;;;;;43.85;9.32;;;;;;;7.21;100.00;100641.00;4892073;29;20068;-86
2023/03/26 00:23:08;;;;;;;42.45;8.82;;;;;;;7.16;100.00;100636.97;4888265;29;20167;-86
2023/03/26 00:25:42;;;;;;;46.20;8.90;;;;;;;7.12;100.00;100636.31;4902731;29;20043;-86
2023/03/26 00:28:12;;;;;;;41.08;8.27;;;;;;;7.13;100.00;100638.00;4937311;29;20023;-86
2023/03/26 00:30:40;;;;;;;42.55;8.73;;;;;;;7.09;100.00;100633.06;4916199;29;20044;-85
2023/03/26 00:33:22;;;;;;;38.67;8.48;;;;;;;7.04;100.00;100633.34;4909530;29;20032;-86
2023/03/26 00:36:04;;;;;;;41.50;8.48;;;;;;;7.02;100.00;100623.94;4935505;29;20038;-85
2023/03/26 00:38:46;;;;;;;49.38;8.57;;;;;;;6.98;100.00;100625.06;4945438;29;20062;-86
2023/03/26 00:41:29;;;;;;;47.92;9.43;;;;;;;6.95;100.00;100633.09;4913741;29;20072;-86
2023/03/26 00:44:07;;;;;;;;;;;;;;;7.00;100.00;100626.63;4898631;29;20036;-86
2023/03/26 00:46:41;;;;;;;47.38;8.10;;;;;;;6.91;100.00;100628.06;4910057;29;19915;-86
2023/03/26 00:49:15;;;;;;;43.53;8.52;;;;;;;6.89;100.00;100619.47;4904000;29;20036;-86
2023/03/26 00:51:47;;;;;;;41.53;8.50;;;;;;;6.86;100.00;100614.44;4914364;29;20115;-86
2023/03/26 00:54:15;;;;;;;43.50;8.90;;;;;;;6.86;100.00;100614.44;4907079;29;20029;-86
2023/03/26 00:56:44;;;;;;;43.22;9.02;;;;;;;6.86;100.00;100603.97;4911623;29;20044;-86
2023/03/26 00:59:17;;;;;;;40.75;7.90;;;;;;;6.86;100.00;100603.97;4909959;29;20028;-85
2023/03/26 01:01:43;;;;;;;39.72;7.97;;;;;;;6.87;100.00;100605.66;4914251;29;20063;-86
2023/03/26 01:04:29;;;;;;;46.20;9.40;;;;;;;6.85;100.00;100599.69;4905962;29;20481;-86
2023/03/26 01:07:20;;;;;;;43.53;8.82;;;;;;;6.81;100.00;100587.72;4895651;29;20521;-86
2023/03/26 01:09:58;;;;;;;42.25;8.68;;;;;;;6.79;100.00;100586.13;4904337;29;20039;-86
2023/03/26 01:12:34;;;;;;;45.70;8.45;;;;;;;6.75;100.00;100584.63;4920050;29;20102;-86
2023/03/26 01:15:04;;;;;;;38.45;8.07;;;;;;;6.72;100.00;100580.44;4935540;29;20480;-86
2023/03/26 01:17:41;;;;;;;43.35;8.48;;;;;;;6.73;100.00;100568.22;4956072;28;20034;-85
2023/03/26 01:20:34;;;;;;;46.35;8.25;;;;;;;6.68;100.00;100573.72;4911852;29;20149;-86
2023/03/26 01:23:06;;;;;;;40.20;8.53;;;;;;;6.64;100.00;100574.84;4887386;29;20064;-86
2023/03/26 01:25:51;;;;;;;38.03;7.78;;;;;;;6.62;100.00;100561.03;4910782;29;20359;-86
2023/03/26 01:28:24;;;;;;;40.78;7.93;;;;;;;6.57;100.00;100555.25;4913009;29;20036;-85
2023/03/26 01:31:16;;;;;;;39.50;7.63;;;;;;;6.57;100.00;100555.25;4913313;29;20115;-84
2023/03/26 01:34:20;;;;;;;40.78;8.38;;;;;;;6.59;100.00;100548.16;4891085;29;20084;-85
2023/03/26 01:36:55;;;;;;;41.58;8.38;;;;;;;6.51;100.00;100539.97;4918995;29;20040;-85
2023/03/26 01:39:57;;;;;;;45.50;8.40;;;;;;;6.53;100.00;100540.72;4909406;29;20040;-85
2023/03/26 01:42:47;;;;;;;39.85;7.88;;;;;;;6.51;100.00;100540.81;4813709;29;20037;-85
2023/03/26 01:45:41;;;;;;;53.10;8.80;;;;;;;6.47;100.00;100543.69;4897814;29;20404;-85
2023/03/26 01:48:07;;;;;;;42.83;8.88;;;;;;;6.43;100.00;100534.38;4899283;29;20040;-85
2023/03/26 01:50:36;;;;;;;50.33;8.60;;;;;;;6.41;100.00;100538.84;4934358;28;20049;-85
2023/03/26 01:53:04;;;;;;;39.80;7.97;;;;;;;6.40;100.00;100538.00;4953243;29;20034;-85
2023/03/26 01:56:11;;;;;;;37.42;7.15;;;;;;;6.39;100.00;100530.25;4933456;29;20539;-85
2023/03/26 01:58:58;;;;;;;47.00;9.18;;;;;;;6.38;100.00;100529.41;4932300;29;20115;-85
2023/03/26 02:01:44;;;;;;;43.75;8.63;;;;;;;6.36;100.00;100519.97;4948918;29;20023;-85
2023/03/26 02:04:33;;;;;;;39.80;8.00;;;;;;;6.36;100.00;100522.59;4948483;29;20484;-85
2023/03/26 02:07:41;;;;;;;37.58;7.45;;;;;;;6.35;100.00;100511.31;4947329;29;20030;-85
2023/03/26 02:10:29;;;;;;;34.85;7.20;;;;;;;6.34;100.00;100511.41;4894089;29;20054;-86
2023/03/26 02:13:13;;;;;;;39.42;8.20;;;;;;;6.29;100.00;100509.06;4963077;28;20505;-86
2023/03/26 02:15:58;;;;;;;37.75;7.95;;;;;;;6.31;100.00;100495.91;4928392;29;20445;-86
2023/03/26 02:18:35;;;;;;;39.15;7.97;;;;;;;6.28;100.00;100494.34;4932837;29;20523;-86
2023/03/26 02:21:21;;;;;;;45.95;7.75;;;;;;;6.22;100.00;100490.34;4916415;29;20036;-86
2023/03/26 02:23:56;;;;;;;38.78;7.25;;;;;;;6.26;100.00;100486.59;4944606;29;20027;-86
2023/03/26 02:26:28;;;;;;;39.00;7.15;;;;;;;6.29;100.00;100483.78;4926527;29;20034;-85
2023/03/26 02:28:53;;;;;;;36.58;7.82;;;;;;;6.27;100.00;100484.81;4933647;29;20036;-86
2023/03/26 02:31:32;;;;;;;34.35;7.63;;;;;;;6.30;100.00;100479.41;4931212;29;20082;-86
2023/03/26 02:33:58;;;;;;;34.55;8.05;;;;;;;6.32;100.00;100481.91;4941539;29;20038;-86
2023/03/26 02:36:27;;;;;;;34.42;8.45;;;;;;;6.32;100.00;100477.53;4936921;29;20027;-86
2023/03/26 02:39:04;;;;;;;38.10;8.07;;;;;;;6.27;100.00;100475.22;4941360;29;20027;-86
2023/03/26 02:41:42;;;;;;;34.72;6.72;;;;;;;6.31;100.00;100475.00;4949818;29;20035;-86
2023/03/26 02:44:14;;;;;;;39.13;7.10;;;;;;;6.33;100.00;100473.16;4953047;29;20143;-86
2023/03/26 02:46:55;;;;;;;34.55;7.07;;;;;;;6.34;100.00;100470.44;4951157;29;20411;-86
2023/03/26 02:49:27;;;;;;;31.27;6.55;;;;;;;6.29;100.00;100457.66;4928666;28;20094;-86
2023/03/26 02:51:55;;;;;;;33.45;7.55;;;;;;;6.36;100.00;100452.06;4896430;29;20398;-86
2023/03/26 02:54:23;;;;;;;43.00;7.70;;;;;;;6.33;100.00;100452.25;4945611;29;20115;-86
2023/03/26 02:56:58;;;;;;;37.00;7.75;;;;;;;6.34;100.00;100449.53;4951690;29;20519;-86
2023/03/26 02:59:49;;;;;;;34.28;7.05;;;;;;;6.29;100.00;100444.59;4949886;29;20571;-86
2023/03/26 03:02:43;;;;;;;34.97;7.03;;;;;;;6.36;100.00;100444.22;4936620;29;20554;-86
2023/03/26 03:05:16;;;;;;;35.53;7.13;;;;;;;6.35;100.00;100429.47;4897854;29;20444;-86
2023/03/26 03:07:56;;;;;;;34.22;7.82;;;;;;;6.36;100.00;100429.38;4930426;29;20126;-85
2023/03/26 03:10:31;;;;;;;31.23;6.97;;;;;;;6.37;100.00;100417.97;4930944;29;20405;-86
2023/03/26 03:13:06;;;;;;;38.85;6.75;;;;;;;6.36;100.00;100415.47;4935992;29;20054;-87
2023/03/26 03:15:35;;;;;;;32.13;6.72;;;;;;;6.40;100.00;100411.72;4891957;29;20580;-86
2023/03/26 03:18:06;;;;;;;36.38;6.70;;;;;;;6.42;100.00;100409.88;4881107;29;20524;-86
2023/03/26 03:20:38;;;;;;;31.63;5.97;;;;;;;6.42;100.00;100399.44;4874456;29;20051;-86
2023/03/26 03:23:06;;;;;;;28.52;6.63;;;;;;;6.45;100.00;100404.47;4875880;29;20610;-86
2023/03/26 03:25:34;;;;;;;32.72;5.90;;;;;;;6.44;100.00;100397.56;4876666;29;20051;-86
2023/03/26 03:27:59;;;;;;;32.35;6.85;;;;;;;6.46;100.00;100396.53;4873406;29;20481;-86
2023/03/26 03:30:33;;;;;;;30.60;6.28;;;;;;;6.49;100.00;100396.31;4892101;29;20048;-87
2023/03/26 03:33:05;;;;;;;29.23;6.60;;;;;;;6.48;100.00;100389.41;4892382;29;20124;-86
2023/03/26 03:35:51;;;;;;;34.17;6.70;;;;;;;6.53;100.00;100394.34;4889756;29;20600;-86
2023/03/26 03:38:26;;;;;;;33.45;6.78;;;;;;;6.54;100.00;100388.19;4890115;29;20554;-86
2023/03/26 03:40:54;;;;;;;38.08;6.78;;;;;;;6.55;100.00;100379.41;4874107;29;20480;-85
2023/03/26 03:43:29;;;;;;;30.73;6.63;;;;;;;6.57;100.00;100382.75;4891803;29;20043;-86
2023/03/26 03:46:07;;;;;;;28.50;5.93;;;;;;;6.60;100.00;100385.16;4881163;29;20039;-86
2023/03/26 03:48:37;;;;;;;36.50;6.88;;;;;;;6.60;100.00;100383.38;4910370;29;20600;-86
2023/03/26 03:51:19;;;;;;;31.48;5.72;;;;;;;6.61;100.00;100373.78;4911343;29;20044;-86
2023/03/26 03:53:54;;;;;;;;;;;;;;;;;;;;;
2023/03/26 03:56:26;;;;;;;35.88;5.97;;;;;;;6.62;100.00;100364.16;4917332;29;20039;-87
2023/03/26 03:59:07;;;;;;;25.63;6.03;;;;;;;6.69;100.00;100357.59;4928657;29;20568;-87
2023/03/26 04:01:36;;;;;;;25.58;5.05;;;;;;;6.65;100.00;100353.50;4928251;29;20877;-87
2023/03/26 04:04:03;;;;;;;24.27;5.53;;;;;;;6.67;100.00;100355.06;4926398;29;20188;-87
2023/03/26 04:06:31;;;;;;;29.63;6.10;;;;;;;6.67;100.00;100352.47;4890657;29;20040;-86
2023/03/26 04:09:06;;;;;;;24.60;5.68;;;;;;;6.67;100.00;100338.53;4910168;29;20040;-86
2023/03/26 04:11:44;;;;;;;27.83;5.85;;;;;;;6.69;100.00;100329.66;4918832;29;20043;-85
2023/03/26 04:14:10;;;;;;;24.85;5.03;;;;;;;6.72;100.00;100332.06;4928707;29;20036;-86
2023/03/26 04:16:44;;;;;;;21.60;5.55;;;;;;;6.73;100.00;100319.84;4916359;29;20103;-86
2023/03/26 04:19:10;;;;;;;26.90;5.35;;;;;;;6.74;100.00;100316.28;4909116;29;20040;-86
2023/03/26 04:21:44;;;;;;;23.92;5.63;;;;;;;6.74;100.00;100309.28;4902137;29;20180;-86
2023/03/26 04:24:11;;;;;;;31.23;5.60;;;;;;;6.74;100.00;100314.50;4900117;29;20468;-86
2023/03/26 04:26:37;;;;;;;24.38;5.80;;;;;;;6.74;100.00;100305.81;4926018;29;20078;-86
2023/03/26 04:29:15;;;;;;;21.42;4.80;;;;;;;6.75;100.00;100297.03;4924296;29;20071;-86
2023/03/26 04:31:45;;;;;;;24.52;5.53;;;;;;;6.75;100.00;100297.88;4888518;29;20553;-86
2023/03/26 04:34:24;;;;;;;26.35;5.68;;;;;;;6.78;100.00;100289.84;4926761;29;20040;-85
2023/03/26 04:36:53;;;;;;;23.02;5.07;;;;;;;6.76;100.00;100291.72;4894104;29;20036;-85
2023/03/26 04:39:37;;;;;;;29.85;5.68;;;;;;;6.79;100.00;100288.88;4912058;29;20041;-85
2023/03/26 04:42:11;;;;;;;21.80;5.03;;;;;;;6.81;100.00;100286.19;4928479;29;20043;-85
2023/03/26 04:44:41;;;;;;;24.08;5.03;;;;;;;6.81;100.00;100276.56;4907969;29;20038;-85
2023/03/26 04:47:09;;;;;;;23.77;5.70;;;;;;;6.82;100.00;100270.41;4898725;29;20040;-85
2023/03/26 04:49:40;;;;;;;27.33;5.55;;;;;;;6.82;100.00;100259.94;4909085;29;20040;-85
2023/03/26 04:52:06;;;;;;;23.77;5.22;;;;;;;6.84;100.00;100260.69;4892337;29;20119;-85
2023/03/26 04:54:37;;;;;;;26.23;5.25;;;;;;;6.82;100.00;100256.50;4900176;29;20450;-85
2023/03/26 04:57:44;;;;;;;24.33;5.97;;;;;;;6.85;100.00;100251.06;4908172;29;20082;-85
2023/03/26 05:00:19;;;;;;;24.52;5.32;;;;;;;6.81;100.00;100253.06;4902199;29;20036;-85
2023/03/26 05:02:49;;;;;;;22.98;4.95;;;;;;;6.79;100.00;100246.22;4934002;29;20047;-85
2023/03/26 05:05:35;;;;;;;22.80;5.13;;;;;;;6.82;100.00;100235.59;4928913;29;20115;-84
2023/03/26 05:08:20;;;;;;;25.52;5.55;;;;;;;6.76;100.00;100236.81;4918889;29;20044;-85
2023/03/26 05:10:59;;;;;;;20.58;4.53;;;;;;;6.80;100.00;100227.81;4909936;29;20092;-85
2023/03/26 05:13:24;;;;;;;22.35;5.38;;;;;;;6.82;100.00;100233.81;4916024;29;20062;-85
2023/03/26 05:15:54;;;;;;;23.27;5.40;;;;;;;6.85;100.00;100227.53;4910567;29;20478;-85
2023/03/26 05:18:22;;;;;;;25.63;4.82;;;;;;;6.87;100.00;100228.25;4928282;29;20557;-85
2023/03/26 05:20:50;;;;;;;23.88;5.13;;;;;;;6.86;100.00;100222.19;4932184;29;20107;-84
2023/03/26 05:23:25;;;;;;;26.30;5.40;;;;;;;6.88;100.00;100222.91;4917114;29;20051;-85
2023/03/26 05:25:54;;;;;;;26.48;5.93;;;;;;;6.87;100.00;100221.25;4932829;29;20090;-85
2023/03/26 05:28:27;;;;;;;27.25;6.07;;;;;;;6.87;100.00;100208.19;4922322;29;20076;-84
2023/03/26 05:31:33;;;;;;;25.75;5.50;;;;;;;6.95;100.00;100214.66;4932159;29;20023;-84
2023/03/26 05:34:02;;;;;;;23.08;5.65;;;;;;;6.92;100.00;100205.25;4904084;29;20044;-84
2023/03/26 05:36:47;;;;;;;22.77;5.68;;;;;;;6.91;100.00;100204.41;4892925;29;20047;-84
2023/03/26 05:39:24;;;;;;;24.40;4.97;;;;;;;6.93;100.00;100206.91;4867406;29;20044;-84
2023/03/26 05:42:27;;;;;;;;;;;;;;;;;;;;;
2023/03/26 05:45:01;;;;;;;;;;;;;;;7.04;100.00;100199.16;4876482;29;20048;-85
2023/03/26 05:47:58;;;;;;;;;;;;;;;;;;;;;
2023/03/26 05:50:33;;;;;;;21.70;5.57;;;;;;;6.98;100.00;100183.06;4892143;29;20036;-87
2023/03/26 05:53:04;;;;;;;24.70;5.70;;;;;;;6.98;100.00;100172.59;4904501;29;20489;-88
2023/03/26 05:56:21;;;;;;;24.83;5.90;;;;;;;6.99;100.00;100169.88;4911473;29;20020;-87
2023/03/26 05:58:52;;;;;;;25.77;5.30;;;;;;;6.95;100.00;100167.56;4908613;29;20051;-86
2023/03/26 06:01:43;;;;;;;25.88;5.20;;;;;;;6.95;100.00;100171.03;4875025;29;20180;-85
2023/03/26 06:04:14;;;;;;;24.00;5.53;;;;;;;6.96;100.00;100158.78;4886509;29;20485;-86
2023/03/26 06:06:56;;;;;;;24.55;5.38;;;;;;;6.91;100.00;100164.34;4877225;29;20028;-86
2023/03/26 06:10:12;;;;;;;26.27;5.70;;;;;;;6.96;100.00;100153.56;4879448;29;20051;-87
2023/03/26 06:13:27;;;;;;;26.95;5.13;;;;;;;6.94;100.00;100145.81;4896208;29;20093;-88
2023/03/26 06:15:59;;;;;;;27.00;6.00;;;;;;;6.97;100.00;100140.38;4882909;29;20036;-87
2023/03/26 06:21:37;;;;;;;18.42;5.10;;;;;;;7.01;100.00;100147.06;4888637;29;20041;-87
2023/03/26 06:24:37;;;;;;;28.67;5.95;;;;;;;7.07;100.00;100145.78;4903909;29;20115;-86
2023/03/26 06:27:08;;;;;;;20.15;5.05;;;;;;;7.06;100.00;100141.50;4896732;29;20040;-86
2023/03/26 06:29:51;;;;;;;21.38;5.22;;;;;;;7.07;100.00;100140.56;4912480;29;20047;-86
2023/03/26 06:35:26;;;;;;;20.88;4.93;;;;;;;7.08;100.00;100137.00;4923785;29;20553;-85
2023/03/26 06:40:54;;;;;;;25.02;6.13;;;;;;;7.09;100.00;100138.66;4904241;29;20039;-86
2023/03/26 06:43:22;;;;;;;25.17;5.65;;;;;;;7.09;100.00;100138.66;4914681;29;20127;-86
2023/03/26 06:49:29;;;;;;;22.52;5.47;;;;;;;7.09;100.00;100136.03;4936561;29;20035;-86
2023/03/26 06:52:43;;;;;;;;;;;;;;;;;;;;;
2023/03/26 06:55:32;;;;;;;22.92;5.35;;;;;;;7.06;100.00;100139.72;4952298;29;20487;-88
2023/03/26 06:58:03;;;;;;;18.77;5.32;;;;;;;7.05;100.00;100139.81;4949191;29;20404;-88
2023/03/26 07:00:31;;;;;;;20.98;5.78;;;;;;;7.04;100.00;100138.16;4949817;29;20036;-88
2023/03/26 07:03:10;;;;;;;22.35;5.60;;;;;;;7.03;100.00;100136.50;4934374;29;20042;-87
2023/03/26 07:06:03;;;;;;;21.25;5.82;;;;;;;7.03;100.00;100133.88;4951446;29;20023;-87
2023/03/26 07:08:35;;;;;;;23.98;6.25;;;;;;;7.03;100.00;100136.50;4931771;29;20028;-87
2023/03/26 07:11:10;;;;;;;25.10;6.22;;;;;;;7.00;100.00;100134.94;4913992;29;20032;-88
2023/03/26 07:13:44;;;;;;;20.50;5.93;;;;;;;6.99;100.00;100133.25;4913540;29;20055;-88
2023/03/26 07:16:14;;;;;;;21.15;5.22;;;;;;;6.95;100.00;100130.97;4922379;29;20123;-88
2023/03/26 07:18:54;;;;;;;17.83;5.40;;;;;;;6.94;100.00;100122.28;4939155;29;20031;-87
2023/03/26 07:21:25;;;;;;;22.30;5.70;;;;;;;6.96;100.00;100124.78;4951213;29;20403;-87
2023/03/26 07:24:39;;;;;;;20.27;5.50;;;;;;;7.00;100.00;100123.63;4939613;29;20023;-87
2023/03/26 07:27:41;;;;;;;19.67;5.38;;;;;;;7.00;100.00;100121.84;4931335;29;20067;-87
2023/03/26 07:30:48;;;;;;;17.52;5.90;;;;;;;7.01;100.00;100120.06;4942312;29;20108;-87
2023/03/26 07:33:22;;;;;;;19.50;5.68;;;;;;;6.98;100.00;100104.59;4880789;29;20048;-87
2023/03/26 07:36:28;;;;;;;20.05;5.70;;;;;;;7.02;100.00;100111.28;4906070;29;20035;-87
2023/03/26 07:39:03;;;;;;;19.83;5.43;;;;;;;7.02;100.00;100111.28;4940226;29;20082;-87
2023/03/26 07:42:13;;;;;;;18.38;5.38;;;;;;;7.05;100.00;100104.03;4914874;29;20024;-87
2023/03/26 07:44:59;;;;;;;18.98;5.53;;;;;;;7.07;100.00;100102.16;4901026;29;20047;-87
2023/03/26 07:47:36;;;;;;;21.58;6.13;;;;;;;7.07;100.00;100102.16;4931706;29;20037;-87
2023/03/26 07:50:25;;;;;;;20.40;5.88;;;;;;;7.10;100.00;100101.09;4948655;29;20038;-87
2023/03/26 07:52:54;;;;;;;21.55;5.95;;;;;;;7.08;100.00;100095.97;4948326;29;20051;-87
2023/03/26 07:55:31;;;;;;;17.15;5.70;;;;;;;7.09;100.00;100095.03;4946031;29;20023;-87
2023/03/26 08:01:45;;;;;;;17.92;6.18;;;;;;;7.17;100.00;100094.47;4949410;29;20035;-87
2023/03/26 08:05:17;;;;;;;21.77;6.20;;;;;;;7.16;100.00;100095.41;4947743;29;20034;-86
2023/03/26 08:08:46;;;;;;;17.77;5.93;;;;;;;7.19;100.00;100092.59;4846268;29;20488;-86
2023/03/26 08:12:26;;;;;;;21.55;5.70;;;;;;;7.21;100.00;100093.34;4876848;29;20044;-88
2023/03/26 08:15:39;;;;;;;22.20;5.80;;;;;;;7.22;100.00;100087.16;4908953;29;20398;-87
2023/03/26 08:18:57;;;;;;;22.02;5.72;;;;;;;7.23;100.00;100084.44;4889707;29;20088;-87
2023/03/26 08:22:09;;;;;;;22.58;6.20;;;;;;;7.29;100.00;100087.53;4917559;29;20109;-86
2023/03/26 08:27:50;;;;;;;18.23;5.35;;;;;;;7.33;100.00;100089.81;4917671;29;20404;-87
2023/03/26 08:30:33;;;;;;;17.60;5.70;;;;;;;7.34;100.00;100080.19;4911176;29;20596;-87
2023/03/26 08:33:22;;;;;;;;;;;;;;;7.47;100.00;100088.81;4908922;29;20059;-87
2023/03/26 08:36:08;;;;;;;17.92;6.72;;;;;;;7.43;100.00;100082.97;4921095;29;20511;-87
2023/03/26 08:38:35;;;;;;;18.83;6.70;;;;;;;7.42;100.00;100078.69;4919689;29;20366;-86
2023/03/26 08:41:10;;;;;;;18.80;5.75;;;;;;;7.47;100.00;100080.97;4909042;29;20092;-86
2023/03/26 08:44:32;;;;;;;19.10;5.15;;;;;;;7.55;100.00;100083.84;4926794;29;20050;-87
2023/03/26 08:47:19;;;;;;;14.40;4.97;;;;;;;7.52;100.00;100079.66;4902237;29;20119;-87
2023/03/26 08:50:09;;;;;;;19.20;5.80;;;;;;;7.57;100.00;100081.09;4895534;29;20037;-87
2023/03/26 08:52:59;;;;;;;16.08;5.80;;;;;;;7.58;100.00;100082.78;4930358;29;20546;-87
2023/03/26 08:56:00;;;;;;;19.73;5.97;;;;;;;7.55;100.00;100087.28;4935089;29;20046;-87
2023/03/26 08:58:47;;;;;;;18.92;5.95;;;;;;;7.55;100.00;100074.22;4911122;29;20037;-86
2023/03/26 09:01:38;;;;;;;18.63;5.53;;;;;;;7.60;100.00;100070.41;4935096;29;20047;-86
2023/03/26 09:04:21;;;;;;;17.38;5.20;;;;;;;7.61;100.00;100077.34;4935193;29;20032;-87
2023/03/26 09:07:08;;;;;;;19.73;5.38;;;;;;;7.61;100.00;100070.31;4934062;29;20028;-87
2023/03/26 09:10:05;;;;;;;18.42;5.72;;;;;;;7.67;100.00;100072.50;4933189;29;20091;-87
2023/03/26 09:12:58;;;;;;;18.30;6.32;;;;;;;7.75;100.00;100074.53;4932585;29;20127;-88
2023/03/26 09:16:04;;;;;;;21.15;7.68;;;;;;;7.76;100.00;100076.19;4933606;29;20036;-87
2023/03/26 09:19:00;;;;;;;17.10;7.07;;;;;;;7.74;100.00;100078.94;4923406;29;20051;-88
2023/03/26 09:22:06;;;;;;;19.77;7.03;;;;;;;7.73;100.00;100076.44;4946270;28;20024;-87
2023/03/26 09:25:00;;;;;;;15.23;5.70;;;;;;;7.72;100.00;100069.53;4940644;29;20123;-84
2023/03/26 09:27:50;;;;;;;16.10;6.10;;;;;;;7.78;100.00;100066.44;4939634;29;20509;-86
2023/03/26 09:30:43;;;;;;;17.30;5.45;;;;;;;7.78;100.00;100069.06;4925634;29;20027;-86
2023/03/26 09:33:27;;;;;;;15.07;5.13;;;;;;;7.74;100.00;100062.38;4926921;29;20584;-86
2023/03/26 09:39:45;;;;;;;13.95;4.90;;;;;;;7.75;100.00;100064.06;4902227;29;20058;-89
2023/03/26 09:43:31;;;;;;;18.42;5.80;;;;;;;7.80;100.00;100069.78;4934020;29;20030;-88
2023/03/26 09:46:11;;;;;;;16.33;5.35;;;;;;;7.75;100.00;100071.91;4881436;29;20044;-88
2023/03/26 09:49:41;;;;;;;13.68;4.68;;;;;;;7.77;100.00;100067.41;4878024;29;20036;-86
2023/03/26 09:52:31;;;;;;;10.95;3.55;;;;;;;7.73;100.00;100073.81;4874928;29;20052;-86
2023/03/26 09:55:37;;;;;;;11.73;3.50;;;;;;;7.74;100.00;100070.25;4873885;29;20049;-86
2023/03/26 09:58:26;;;;;;;9.23;2.83;;;;;;;7.68;100.00;100073.31;4868651;29;20037;-86
2023/03/26 10:01:15;;;;;;;8.77;4.55;;;;;;;7.69;100.00;100075.00;4874011;29;20037;-86
2023/03/26 10:04:34;;;;;;;6.68;3.33;;;;;;;7.76;100.00;100077.03;4875697;29;20064;-86
2023/03/26 10:07:18;;;;;;;6.80;3.10;;;;;;;7.73;100.00;100079.03;4875090;29;20032;-86
2023/03/26 10:10:31;;;;;;;8.40;3.28;;;;;;;7.76;100.00;100081.44;4930426;29;20039;-86
2023/03/26 10:13:07;;;;;;;10.40;3.28;;;;;;;7.78;100.00;100074.28;4921981;29;20055;-86
2023/03/26 10:16:06;;;;;;;7.55;3.38;;;;;;;7.83;100.00;100078.25;4911404;29;20290;-86
2023/03/26 10:19:11;;;;;;;10.93;3.38;;;;;;;7.83;100.00;100082.63;4894183;29;20035;-85
2023/03/26 10:22:18;;;;;;;;;;;;;;;;;;;;;
2023/03/26 10:25:27;;;;;;;9.77;3.70;;;;;;;7.90;100.00;100083.84;4902892;29;20027;-86
2023/03/26 10:35:20;;;;;;;6.65;2.70;;;;;;;7.76;100.00;100092.75;4906750;29;20036;-85
2023/03/26 10:38:26;;;;;;;8.07;2.53;;;;;;;7.83;100.00;100095.75;4909160;29;20047;-85
2023/03/26 10:41:46;;;;;;;7.07;2.47;;;;;;;7.88;100.00;100096.22;4913899;29;20080;-85
2023/03/26 10:44:58;;;;;;;7.97;1.85;;;;;;;7.78;100.00;100085.59;4893411;29;20490;-85
2023/03/26 10:47:55;;;;;;;4.72;1.77;;;;;;;7.73;100.00;100094.75;4893818;29;20055;-85
2023/03/26 10:51:07;;;;;;;3.85;1.60;;;;;;;7.82;100.00;100096.69;4907875;29;20032;-85
2023/03/26 10:54:05;;;;;;;7.13;2.10;;;;;;;7.85;100.00;100099.06;4908309;29;20461;-85
2023/03/26 10:57:10;;;;;;;5.30;1.70;;;;;;;7.91;100.00;100096.00;4904989;29;20040;-84
2023/03/26 10:59:39;;;;;;;6.32;1.70;;;;;;;7.91;100.00;100100.41;4886609;29;20128;-84
2023/03/26 11:02:13;;;;;;;4.85;1.77;;;;;;;7.89;100.00;100108.38;4901111;29;20055;-86
2023/03/26 11:05:16;;;;;;;5.82;2.33;;;;;;;7.99;100.00;100104.09;4912945;29;20035;-84
2023/03/26 11:08:29;;;;;;;;;;;;;;;;;;;;;
2023/03/26 11:11:51;;;;;;;4.80;1.90;;;;;;;8.11;100.00;100107.59;4913608;29;20032;-83
2023/03/26 11:14:26;;;;;;;4.25;1.77;;;;;;;8.11;100.00;100110.22;4907392;29;20044;-83
2023/03/26 11:17:01;;;;;;;4.03;1.75;;;;;;;8.09;100.00;100105.09;4887509;29;20045;-83
2023/03/26 11:19:46;;;;;;;3.95;1.75;;;;;;;8.15;100.00;100117.75;4900572;29;20441;-83
2023/03/26 11:22:17;;;;;;;2.80;1.27;;;;;;;8.16;100.00;100115.94;4877183;29;20301;-83
2023/03/26 11:25:21;;;;;;;;;;;;;;;;;;;;;
2023/03/26 11:28:08;;;;;;;2.88;1.15;;;;;;;8.14;100.00;100113.44;4887222;29;20441;-83
2023/03/26 11:30:50;;;;;;;1.75;0.90;;;;;;;8.14;100.00;100123.94;4902212;29;20110;-83
2023/03/26 11:33:56;;;;;;;4.72;1.45;;;;;;;8.24;100.00;100128.47;4914165;29;20063;-83
2023/03/26 11:36:58;;;;;;;;;;;;;;;;;;;;;
2023/03/26 11:39:55;;;;;;;3.33;1.23;;;;;;;8.38;100.00;100129.09;4828806;29;20044;-83
2023/03/26 11:42:50;;;;;;;2.75;1.17;;;;;;;8.31;100.00;100121.81;4910928;29;20515;-82
2023/03/26 11:45:24;;;;;;;5.10;1.77;;;;;;;8.33;100.00;100125.16;4852596;29;20116;-83
2023/03/26 11:48:32;;;;;;;3.10;1.45;;;;;;;8.34;100.00;100132.09;4851031;29;20037;-82
2023/03/26 11:51:20;;;;;;;;;;;;;;;;;;;;;
2023/03/26 11:54:09;;;;;;;4.05;1.40;;;;;;;8.35;100.00;100136.38;4861308;29;20530;-82
2023/03/26 11:56:48;;;;;;;3.67;1.30;;;;;;;8.37;100.00;100134.47;4854465;29;20048;-82
2023/03/26 11:59:28;;;;;;;2.45;1.50;;;;;;;8.40;100.00;100135.06;4861525;29;20441;-82
2023/03/26 12:02:33;;;;;;;5.00;1.88;;;;;;;8.56;100.00;100133.91;4867244;29;20051;-82
2023/03/26 12:05:26;;;;;;;2.88;1.50;;;;;;;8.62;100.00;100144.75;4913674;29;20366;-82
2023/03/26 12:08:06;;;;;;;3.55;1.67;;;;;;;8.60;100.00;100146.66;4913350;29;20469;-83
2023/03/26 12:11:11;;;;;;;3.30;1.70;;;;;;;8.58;100.00;100140.72;4911414;29;20107;-83
2023/03/26 12:14:21;;;;;;;;;;;;;;;;;;;;;
2023/03/26 12:20:25;;;;;;;5.78;1.92;;;;;;;8.68;100.00;100141.66;4916748;29;20032;-82
2023/03/26 12:23:18;;;;;;;4.85;2.20;;;;;;;8.65;100.00;100144.53;4948502;28;20031;-83
2023/03/26 12:26:04;;;;;;;5.43;2.20;;;;;;;8.70;100.00;100137.13;4902952;29;20050;-83
2023/03/26 12:32:15;;;;;;;4.57;2.20;;;;;;;8.85;100.00;100148.25;4927554;29;20521;-82
2023/03/26 12:34:44;;;;;;;;;;;;;;;9.03;100.00;100156.44;4918689;29;20031;-83
2023/03/26 12:37:39;;;;;;;8.10;2.38;;;;;;;8.93;100.00;100158.13;4948228;28;19941;-83
2023/03/26 12:40:55;;;;;;;;;;;;;;;;;;;;;
2023/03/26 12:44:02;;;;;;;6.82;2.60;;;;;;;9.04;100.00;100158.13;4931781;29;20042;-83
2023/03/26 12:46:47;;;;;;;5.47;2.80;;;;;;;9.01;100.00;100155.72;4930776;29;20027;-83
2023/03/26 12:49:25;;;;;;;7.03;2.90;;;;;;;9.09;100.00;100153.34;4935896;29;20034;-83
2023/03/26 12:51:55;;;;;;;6.20;3.00;;;;;;;9.05;100.00;100151.91;4915643;29;20044;-83
2023/03/26 12:54:47;;;;;;;12.00;3.40;;;;;;;9.10;100.00;100160.25;4897812;29;20095;-83
2023/03/26 12:57:39;;;;;;;7.13;3.40;;;;;;;9.08;100.00;100163.00;4913759;29;20261;-83
2023/03/26 13:00:53;;;;;;;6.10;2.88;;;;;;;9.05;100.00;100165.88;4916738;29;20512;-84
2023/03/26 13:03:54;;;;;;;5.72;3.15;;;;;;;9.16;100.00;100165.00;4919306;29;20032;-84
2023/03/26 13:07:05;;;;;;;3.83;2.15;;;;;;;9.14;100.00;100171.34;4873743;29;20060;-84
2023/03/26 13:10:15;;;;;;;5.35;2.58;;;;;;;9.20;100.00;100176.94;4819416;29;20026;-84
2023/03/26 13:13:12;;;;;;;5.25;2.40;;;;;;;9.26;100.00;100171.22;4842827;29;20538;-84
2023/03/26 13:16:05;;;;;;;2.63;1.90;;;;;;;9.15;100.00;100173.00;4848140;29;20072;-83
2023/03/26 13:19:08;;;;;;;;;;;;;;;;;;;;;
2023/03/26 13:21:42;;;;;;;3.72;2.28;;;;;;;9.26;100.00;100183.50;4840163;29;20394;-82
2023/03/26 13:24:26;;;;;;;4.53;2.05;;;;;;;9.19;100.00;100185.75;4870629;29;20214;-82
2023/03/26 13:27:10;;;;;;;6.20;4.22;;;;;;;9.13;100.00;100180.16;4857003;29;20036;-83
2023/03/26 13:29:45;;;;;;;6.60;3.28;;;;;;;9.13;100.00;100196.75;4859447;29;20449;-84
2023/03/26 13:32:33;;;;;;;18.13;12.23;;;;;;;9.11;100.00;100188.16;4852198;29;20494;-83